Time;durP1;ratioP1;P1;durP2;ratioP2;P2;SDS_P1;SDS_P2;PMS_P1;PMS_P2;Temp;Humidity;BMP_temperature;BMP_pressure;BME280_temperature;BME280_humidity;BME280_pressure;Samples;Min_cycle;Max_cycle;Signal;HPM_P1;HPM_P2
2021/12/28 00:02:09;;;;;;;0.98;0.60;;;13.00;51.10;;;;;;5126407;27;46966;-16
2021/12/28 00:04:36;;;;;;;0.63;0.60;;;13.00;51.10;;;;;;5125885;27;46825;-16
2021/12/28 00:07:02;;;;;;;0.60;0.57;;;13.00;51.00;;;;;;5126370;27;47307;-16
2021/12/28 00:09:29;;;;;;;1.02;0.60;;;13.00;51.10;;;;;;5126000;27;48766;-16
2021/12/28 00:11:57;;;;;;;1.50;0.63;;;13.00;51.00;;;;;;5126197;27;46878;-17
2021/12/28 00:14:33;;;;;;;0.70;0.60;;;13.00;51.10;;;;;;5125972;27;46743;-17
2021/12/28 00:19:44;;;;;;;0.70;0.70;;;13.00;50.90;;;;;;5124465;27;47563;-16
2021/12/28 00:22:11;;;;;;;0.80;0.63;;;13.00;50.90;;;;;;5128569;27;46958;-17
2021/12/28 00:24:37;;;;;;;2.10;0.93;;;13.00;50.90;;;;;;5129547;27;46883;-17
2021/12/28 00:27:06;;;;;;;1.10;0.67;;;13.00;50.90;;;;;;5129861;27;47244;-16
2021/12/28 00:29:32;;;;;;;1.43;0.70;;;13.00;50.90;;;;;;5128949;27;47088;-16
2021/12/28 00:31:59;;;;;;;0.80;0.50;;;13.00;51.00;;;;;;5129491;27;46973;-17
2021/12/28 00:34:26;;;;;;;0.80;0.67;;;13.00;50.90;;;;;;5129171;27;46962;-17
2021/12/28 00:36:52;;;;;;;1.63;0.70;;;13.00;50.90;;;;;;5129540;27;46878;-16
2021/12/28 00:39:19;;;;;;;0.90;0.70;;;13.00;50.90;;;;;;5129234;27;48851;-15
2021/12/28 00:41:46;;;;;;;1.13;0.63;;;13.00;50.80;;;;;;5129108;27;47399;-16
2021/12/28 00:44:14;;;;;;;1.03;0.70;;;13.00;50.70;;;;;;5128364;27;46994;-17
2021/12/28 00:46:41;;;;;;;0.60;0.60;;;13.00;50.70;;;;;;5129729;27;47017;-17
2021/12/28 00:49:08;;;;;;;0.73;0.70;;;13.00;50.70;;;;;;5128929;27;46959;-16
2021/12/28 00:51:34;;;;;;;0.70;0.70;;;13.00;50.70;;;;;;5129216;27;46941;-16
2021/12/28 00:54:01;;;;;;;0.70;0.70;;;13.00;50.70;;;;;;5128838;27;46912;-17
2021/12/28 00:56:28;;;;;;;1.07;0.60;;;13.00;50.70;;;;;;5129231;27;47126;-16
2021/12/28 00:58:54;;;;;;;0.83;0.67;;;13.00;50.70;;;;;;5129081;27;48048;-17
2021/12/28 01:01:22;;;;;;;0.80;0.70;;;13.00;50.70;;;;;;5129083;27;47372;-17
2021/12/28 01:03:49;;;;;;;0.87;0.60;;;13.00;50.70;;;;;;5128916;27;46910;-16
2021/12/28 01:06:16;;;;;;;0.83;0.60;;;13.00;50.70;;;;;;5128914;27;46894;-17
2021/12/28 01:08:42;;;;;;;0.67;0.67;;;13.00;50.70;;;;;;5128881;27;49067;-16
2021/12/28 01:11:09;;;;;;;0.63;0.50;;;13.00;50.80;;;;;;5128818;27;46923;-17
2021/12/28 01:13:36;;;;;;;0.60;0.60;;;13.00;50.70;;;;;;5128618;27;46845;-16
2021/12/28 01:16:03;;;;;;;0.97;0.50;;;13.00;50.70;;;;;;5128686;27;47275;-16
2021/12/28 01:18:31;;;;;;;0.73;0.68;;;13.00;50.60;;;;;;5128586;27;48928;-16
2021/12/28 01:20:57;;;;;;;1.50;0.60;;;13.00;50.70;;;;;;5129026;27;46999;-18
2021/12/28 01:23:26;;;;;;;1.80;0.80;;;13.00;51.20;;;;;;5128568;27;46809;-17
2021/12/28 01:25:52;;;;;;;1.33;0.65;;;13.00;50.60;;;;;;5128900;27;46866;-16
2021/12/28 01:28:19;;;;;;;0.70;0.60;;;13.00;50.80;;;;;;5128223;27;48800;-16
2021/12/28 01:30:46;;;;;;;0.40;0.40;;;13.00;50.70;;;;;;5128129;27;46822;-16
2021/12/28 01:33:13;;;;;;;1.17;0.53;;;13.00;50.70;;;;;;5127438;27;46820;-16
2021/12/28 01:35:41;;;;;;;0.80;0.60;;;13.00;50.70;;;;;;5128418;27;46769;-16
2021/12/28 01:38:07;;;;;;;1.80;0.70;;;13.00;50.70;;;;;;5128043;27;48747;-17
2021/12/28 01:40:35;;;;;;;0.47;0.40;;;13.00;50.70;;;;;;5128198;27;46922;-16
2021/12/28 01:43:06;;;;;;;0.88;0.60;;;13.00;50.70;;;;;;5128569;27;46880;-16
2021/12/28 01:45:47;;;;;;;0.60;0.60;;;12.90;50.60;;;;;;5127668;27;47038;-16
2021/12/28 01:48:16;;;;;;;0.50;0.50;;;13.00;50.70;;;;;;5127990;27;46935;-17
2021/12/28 01:50:44;;;;;;;1.30;0.40;;;13.00;50.60;;;;;;5128052;27;47270;-16
2021/12/28 01:53:11;;;;;;;1.10;0.70;;;12.90;50.60;;;;;;5128328;27;46902;-18
2021/12/28 01:55:39;;;;;;;0.70;0.60;;;12.90;50.50;;;;;;5127898;27;47304;-17
2021/12/28 01:58:07;;;;;;;0.60;0.50;;;13.00;50.50;;;;;;5128360;27;47770;-16
2021/12/28 02:00:34;;;;;;;0.60;0.60;;;13.00;50.60;;;;;;5127561;27;46798;-16
2021/12/28 02:03:02;;;;;;;1.17;0.80;;;13.00;50.60;;;;;;5127799;27;46826;-17
2021/12/28 02:05:29;;;;;;;0.80;0.50;;;12.90;50.60;;;;;;5127993;27;47163;-16
2021/12/28 02:07:57;;;;;;;0.70;0.60;;;13.00;50.70;;;;;;5127995;27;48114;-16
2021/12/28 02:10:24;;;;;;;0.63;0.55;;;12.90;50.50;;;;;;5127541;27;47043;-17
2021/12/28 02:12:50;;;;;;;0.60;0.47;;;13.00;51.10;;;;;;5127907;27;46819;-17
2021/12/28 02:15:17;;;;;;;1.20;0.60;;;13.00;50.60;;;;;;5127736;27;46894;-16
2021/12/28 02:17:44;;;;;;;1.37;0.50;;;13.00;50.60;;;;;;5127711;27;48241;-17
2021/12/28 02:20:13;;;;;;;0.40;0.40;;;13.00;50.60;;;;;;5127595;27;46931;-16
2021/12/28 02:22:40;;;;;;;0.47;0.47;;;13.00;50.60;;;;;;5127627;27;47024;-16
2021/12/28 02:25:07;;;;;;;0.90;0.43;;;13.00;50.70;;;;;;5127842;27;46958;-16
2021/12/28 02:27:34;;;;;;;0.50;0.50;;;13.00;50.80;;;;;;5127763;27;49115;-17
2021/12/28 02:30:01;;;;;;;0.55;0.55;;;13.00;50.60;;;;;;5127177;27;46833;-17
2021/12/28 02:32:28;;;;;;;0.50;0.50;;;13.00;50.60;;;;;;5127692;27;46829;-17
2021/12/28 02:34:55;;;;;;;0.55;0.50;;;13.00;50.70;;;;;;5127679;27;46920;-16
2021/12/28 02:37:23;;;;;;;0.53;0.53;;;13.00;50.70;;;;;;5127078;27;46885;-17
2021/12/28 02:39:50;;;;;;;0.73;0.67;;;13.00;50.60;;;;;;5127316;27;46730;-16
2021/12/28 02:42:17;;;;;;;0.40;0.40;;;13.00;50.70;;;;;;5127234;27;46857;-16
2021/12/28 02:44:43;;;;;;;0.95;0.52;;;13.00;50.70;;;;;;5126397;27;47293;-16
2021/12/28 02:47:10;;;;;;;0.80;0.67;;;13.00;50.70;;;;;;5127204;27;47793;-16
2021/12/28 02:49:37;;;;;;;0.63;0.63;;;13.00;50.70;;;;;;5127195;27;47404;-16
2021/12/28 02:52:09;;;;;;;1.00;0.67;;;13.00;50.80;;;;;;5127366;27;46734;-15
2021/12/28 02:54:37;;;;;;;0.50;0.50;;;13.00;50.70;;;;;;5127459;27;47166;-16
2021/12/28 02:57:05;;;;;;;0.60;0.50;;;13.00;50.80;;;;;;5127048;27;49003;-17
2021/12/28 02:59:31;;;;;;;0.67;0.67;;;13.00;50.70;;;;;;5126852;27;46813;-16
2021/12/28 03:01:58;;;;;;;0.50;0.50;;;12.90;50.60;;;;;;5127046;27;47054;-16
2021/12/28 03:04:27;;;;;;;0.90;0.60;;;13.00;50.80;;;;;;5127006;27;46903;-16
2021/12/28 03:06:54;;;;;;;0.50;0.50;;;13.00;50.70;;;;;;5127048;27;48853;-16
2021/12/28 03:09:21;;;;;;;0.67;0.57;;;13.00;50.80;;;;;;5126875;27;47456;-16
2021/12/28 03:11:49;;;;;;;0.30;0.30;;;13.00;50.70;;;;;;5127114;27;46804;-17
2021/12/28 03:14:15;;;;;;;0.60;0.60;;;13.00;50.60;;;;;;5127060;27;47288;-16
2021/12/28 03:16:42;;;;;;;0.80;0.67;;;13.00;50.60;;;;;;5126496;27;47833;-16
2021/12/28 03:19:09;;;;;;;0.97;0.50;;;13.00;50.60;;;;;;5126605;27;46897;-16
2021/12/28 03:21:38;;;;;;;0.93;0.52;;;13.00;50.60;;;;;;5126960;27;46859;-16
2021/12/28 03:24:06;;;;;;;1.17;0.60;;;13.00;50.60;;;;;;5127021;27;46957;-16
2021/12/28 03:26:32;;;;;;;0.67;0.67;;;13.00;50.60;;;;;;5126761;27;48970;-16
2021/12/28 03:29:00;;;;;;;0.47;0.40;;;13.00;50.70;;;;;;5126561;27;46922;-16
2021/12/28 03:31:27;;;;;;;0.55;0.40;;;13.00;50.60;;;;;;5126910;27;46882;-16
2021/12/28 03:33:54;;;;;;;0.55;0.55;;;13.00;50.60;;;;;;5126571;27;47133;-16
2021/12/28 03:36:22;;;;;;;0.50;0.50;;;13.00;50.60;;;;;;5126523;27;47053;-16
2021/12/28 03:38:49;;;;;;;0.47;0.47;;;13.00;50.60;;;;;;5126511;27;47469;-17
2021/12/28 03:41:16;;;;;;;1.47;0.83;;;13.00;50.60;;;;;;5126411;27;46898;-17
2021/12/28 03:43:44;;;;;;;0.40;0.40;;;13.00;50.60;;;;;;5126419;27;47291;-16
2021/12/28 03:46:12;;;;;;;0.43;0.43;;;13.00;50.70;;;;;;5126539;27;47978;-16
2021/12/28 03:48:39;;;;;;;0.50;0.50;;;13.00;50.70;;;;;;5126217;27;46986;-16
2021/12/28 03:51:06;;;;;;;0.80;0.50;;;13.00;50.70;;;;;;5126592;27;46810;-17
2021/12/28 03:53:33;;;;;;;0.80;0.52;;;13.00;50.70;;;;;;5126396;27;47299;-16
2021/12/28 03:56:00;;;;;;;0.47;0.40;;;13.00;50.60;;;;;;5126811;27;48193;-16
2021/12/28 03:58:26;;;;;;;0.60;0.60;;;13.00;50.60;;;;;;5130102;27;47038;-16
2021/12/28 04:00:53;;;;;;;0.38;0.38;;;13.00;50.60;;;;;;5129839;27;46807;-16
2021/12/28 04:03:21;;;;;;;0.68;0.45;;;13.00;50.70;;;;;;5129849;27;46836;-16
2021/12/28 04:05:48;;;;;;;0.57;0.55;;;13.00;50.60;;;;;;5129705;27;48217;-16
2021/12/28 04:08:19;;;;;;;0.40;0.40;;;13.00;50.60;;;;;;5129662;27;46921;-15
2021/12/28 04:10:52;;;;;;;0.55;0.50;;;13.00;50.60;;;;;;5129853;27;46888;-16
2021/12/28 04:13:19;;;;;;;0.67;0.67;;;13.00;50.70;;;;;;5129996;27;47111;-16
2021/12/28 04:15:46;;;;;;;0.50;0.50;;;13.00;50.70;;;;;;5129603;27;48205;-17
2021/12/28 04:18:13;;;;;;;0.70;0.47;;;13.00;50.80;;;;;;5129624;27;46982;-16
2021/12/28 04:20:41;;;;;;;0.30;0.30;;;13.00;50.80;;;;;;5129416;27;46906;-17
2021/12/28 04:23:08;;;;;;;0.45;0.45;;;13.00;50.80;;;;;;5129947;27;46825;-17
2021/12/28 04:25:35;;;;;;;1.33;0.40;;;13.00;50.80;;;;;;5129391;27;47070;-16
2021/12/28 04:28:01;;;;;;;0.60;0.40;;;13.00;50.90;;;;;;5129592;27;47289;-16
2021/12/28 04:30:28;;;;;;;0.57;0.40;;;13.00;50.80;;;;;;5129271;27;47044;-16
2021/12/28 04:32:55;;;;;;;1.30;0.40;;;13.00;50.80;;;;;;5129824;27;46953;-17
2021/12/28 04:35:21;;;;;;;0.82;0.57;;;13.00;50.70;;;;;;5128966;27;49132;-17
2021/12/28 04:37:49;;;;;;;1.23;0.50;;;13.00;50.70;;;;;;5129439;27;46778;-16
2021/12/28 04:40:18;;;;;;;0.50;0.50;;;13.00;50.80;;;;;;5129318;27;46770;-16
2021/12/28 04:42:44;;;;;;;0.50;0.50;;;13.00;50.80;;;;;;5129742;27;46959;-17
2021/12/28 04:45:14;;;;;;;1.10;0.70;;;13.00;50.70;;;;;;5128608;27;47964;-16
2021/12/28 04:47:41;;;;;;;0.53;0.53;;;13.00;50.80;;;;;;5129324;27;46893;-16
2021/12/28 04:50:08;;;;;;;0.40;0.40;;;13.00;50.90;;;;;;5129329;27;47018;-16
2021/12/28 04:52:37;;;;;;;0.98;0.50;;;13.00;50.90;;;;;;5129221;27;47280;-18
2021/12/28 04:55:06;;;;;;;0.50;0.50;;;13.00;50.80;;;;;;5128475;27;49154;-16
2021/12/28 04:57:33;;;;;;;0.68;0.38;;;13.00;50.90;;;;;;5128854;27;47432;-17
2021/12/28 05:00:00;;;;;;;0.50;0.50;;;13.00;50.90;;;;;;5128769;27;46812;-17
2021/12/28 05:02:26;;;;;;;0.63;0.40;;;13.00;50.80;;;;;;5129024;27;47110;-16
2021/12/28 05:04:53;;;;;;;0.50;0.50;;;13.00;51.50;;;;;;5128777;27;47953;-17
2021/12/28 05:07:20;;;;;;;0.47;0.43;;;13.00;50.90;;;;;;5128343;27;47424;-16
2021/12/28 05:09:46;;;;;;;0.50;0.50;;;13.00;50.90;;;;;;5128705;27;47009;-17
2021/12/28 05:12:14;;;;;;;0.40;0.40;;;13.00;50.80;;;;;;5129207;27;46913;-16
2021/12/28 05:14:42;;;;;;;0.77;0.40;;;13.00;50.90;;;;;;5128671;27;48873;-16
2021/12/28 05:17:09;;;;;;;0.40;0.40;;;13.00;50.90;;;;;;5128648;27;46909;-16
2021/12/28 05:19:36;;;;;;;0.63;0.60;;;13.00;50.90;;;;;;5128669;27;46944;-17
2021/12/28 05:22:03;;;;;;;0.40;0.30;;;13.00;50.90;;;;;;5129089;27;47084;-17
2021/12/28 05:24:30;;;;;;;0.73;0.60;;;13.00;50.90;;;;;;5128652;27;48745;-18
2021/12/28 05:26:56;;;;;;;1.33;0.60;;;13.00;50.80;;;;;;5128707;27;47283;-16
2021/12/28 05:29:24;;;;;;;0.40;0.40;;;13.00;50.90;;;;;;5128656;27;47074;-16
2021/12/28 05:31:51;;;;;;;0.40;0.40;;;13.00;50.80;;;;;;5128581;27;47074;-16
2021/12/28 05:34:18;;;;;;;0.37;0.37;;;13.00;50.80;;;;;;5128332;27;48166;-16
2021/12/28 05:36:45;;;;;;;0.40;0.30;;;13.00;50.80;;;;;;5128443;27;46929;-17
2021/12/28 05:39:12;;;;;;;0.80;0.50;;;13.00;50.90;;;;;;5128056;27;46924;-17
2021/12/28 05:41:39;;;;;;;0.30;0.30;;;13.00;50.80;;;;;;5128365;27;46865;-16
2021/12/28 05:44:06;;;;;;;0.30;0.30;;;13.10;50.80;;;;;;5127702;27;47864;-16
2021/12/28 05:46:34;;;;;;;0.30;0.30;;;13.00;51.00;;;;;;5128442;27;47092;-16
2021/12/28 05:49:01;;;;;;;0.73;0.60;;;13.00;50.90;;;;;;5128253;27;46889;-16
2021/12/28 05:51:27;;;;;;;0.57;0.50;;;13.00;50.80;;;;;;5128540;27;46947;-16
2021/12/28 05:53:54;;;;;;;0.47;0.33;;;13.10;50.90;;;;;;5127573;27;48093;-16
2021/12/28 05:56:21;;;;;;;0.40;0.40;;;13.10;50.80;;;;;;5128163;27;47631;-16
2021/12/28 05:58:47;;;;;;;0.40;0.38;;;13.10;50.90;;;;;;5128006;27;46816;-17
2021/12/28 06:01:14;;;;;;;0.17;0.17;;;13.10;50.90;;;;;;5128335;27;46898;-16
2021/12/28 06:03:42;;;;;;;0.63;0.40;;;13.10;50.80;;;;;;5127887;27;48796;-16
2021/12/28 06:06:09;;;;;;;0.32;0.30;;;13.10;50.80;;;;;;5127964;27;46874;-16
2021/12/28 06:08:35;;;;;;;0.40;0.40;;;13.10;50.90;;;;;;5127656;27;46807;-16
2021/12/28 06:11:03;;;;;;;0.50;0.50;;;13.10;51.00;;;;;;5127852;27;47227;-17
2021/12/28 06:13:30;;;;;;;0.30;0.30;;;13.10;50.90;;;;;;5127665;27;46932;-17
2021/12/28 06:15:57;;;;;;;0.32;0.30;;;13.10;50.90;;;;;;5127874;27;46893;-16
2021/12/28 06:18:23;;;;;;;1.00;0.25;;;13.10;50.80;;;;;;5127210;27;46794;-16
2021/12/28 06:20:51;;;;;;;0.37;0.37;;;13.10;50.80;;;;;;5127926;27;46869;-16
2021/12/28 06:23:18;;;;;;;0.40;0.40;;;13.10;50.80;;;;;;5127414;27;49089;-18
2021/12/28 06:25:45;;;;;;;0.60;0.20;;;13.10;50.90;;;;;;5127548;27;46949;-17
2021/12/28 06:28:11;;;;;;;0.88;0.50;;;13.10;50.70;;;;;;5126526;27;46881;-16
2021/12/28 06:30:38;;;;;;;0.20;0.20;;;13.10;50.80;;;;;;5127355;27;47122;-17
2021/12/28 06:33:05;;;;;;;0.60;0.40;;;13.10;50.70;;;;;;5127450;27;48795;-17
2021/12/28 06:35:32;;;;;;;0.30;0.30;;;13.10;50.80;;;;;;5127249;27;47073;-16
2021/12/28 06:38:00;;;;;;;0.30;0.30;;;13.10;50.80;;;;;;5127126;27;46917;-16
2021/12/28 06:40:26;;;;;;;0.37;0.30;;;13.10;50.80;;;;;;5127145;27;46852;-16
2021/12/28 06:42:53;;;;;;;0.30;0.30;;;13.10;50.80;;;;;;5127166;27;46949;-17
2021/12/28 06:45:20;;;;;;;0.57;0.30;;;13.10;50.70;;;;;;5126783;27;46750;-16
2021/12/28 06:47:46;;;;;;;0.50;0.40;;;13.10;50.80;;;;;;5127041;27;46915;-16
2021/12/28 06:50:13;;;;;;;0.37;0.37;;;13.10;51.50;;;;;;5127299;27;46930;-17
2021/12/28 06:52:40;;;;;;;0.20;0.20;;;13.10;50.80;;;;;;5127208;27;47946;-16
2021/12/28 06:55:09;;;;;;;0.52;0.30;;;13.10;50.80;;;;;;5127035;27;47065;-16
2021/12/28 06:57:36;;;;;;;0.63;0.40;;;13.10;50.90;;;;;;5127118;27;46949;-16
2021/12/28 07:00:04;;;;;;;0.30;0.30;;;13.10;50.80;;;;;;5127218;27;47253;-16
2021/12/28 07:02:31;;;;;;;0.28;0.28;;;13.10;50.80;;;;;;5127027;27;46964;-16
2021/12/28 07:04:58;;;;;;;0.30;0.30;;;13.20;50.90;;;;;;5126440;27;46927;-16
2021/12/28 07:07:24;;;;;;;0.27;0.27;;;13.20;50.90;;;;;;5127047;27;46882;-16
2021/12/28 07:09:51;;;;;;;0.30;0.30;;;13.20;51.00;;;;;;5126798;27;46884;-16
2021/12/28 07:12:19;;;;;;;0.20;0.20;;;13.20;50.90;;;;;;5125967;27;48034;-16
2021/12/28 07:14:47;;;;;;;0.23;0.23;;;13.20;50.90;;;;;;5125802;27;46821;-16
2021/12/28 07:17:13;;;;;;;0.17;0.17;;;13.20;50.90;;;;;;5126958;27;46878;-16
2021/12/28 07:19:40;;;;;;;0.30;0.30;;;13.10;50.80;;;;;;5126697;27;46895;-17
2021/12/28 07:22:07;;;;;;;0.30;0.20;;;13.10;50.70;;;;;;5126635;27;46892;-16
2021/12/28 07:24:33;;;;;;;0.30;0.30;;;13.10;50.80;;;;;;5126566;27;46915;-16
2021/12/28 07:27:00;;;;;;;0.40;0.40;;;13.20;50.90;;;;;;5126752;27;46965;-16
2021/12/28 07:29:28;;;;;;;1.00;0.30;;;13.20;51.00;;;;;;5126938;27;46845;-16
2021/12/28 07:31:55;;;;;;;0.30;0.30;;;13.20;51.00;;;;;;5125388;27;47908;-16
2021/12/28 07:34:21;;;;;;;0.85;0.30;;;13.10;50.90;;;;;;5126499;27;46966;-17
2021/12/28 07:36:48;;;;;;;0.30;0.30;;;13.20;51.00;;;;;;5126348;27;46915;-16
2021/12/28 07:39:15;;;;;;;0.30;0.30;;;13.10;51.10;;;;;;5126636;27;47120;-17
2021/12/28 07:41:41;;;;;;;0.30;0.30;;;13.20;51.00;;;;;;5126490;27;46914;-16
2021/12/28 07:44:08;;;;;;;0.20;0.20;;;13.20;51.00;;;;;;5125776;27;47302;-17
2021/12/28 07:46:36;;;;;;;0.33;0.20;;;13.20;51.10;;;;;;5126303;27;46814;-16
2021/12/28 07:49:03;;;;;;;0.20;0.20;;;13.10;51.10;;;;;;5126416;27;47216;-16
2021/12/28 07:51:30;;;;;;;0.40;0.40;;;13.20;51.00;;;;;;5126110;27;46910;-17
2021/12/28 07:53:56;;;;;;;0.27;0.27;;;13.10;51.10;;;;;;5126226;27;47300;-16
2021/12/28 07:56:23;;;;;;;0.40;0.30;;;13.20;51.20;;;;;;5126356;27;46942;-16
2021/12/28 07:58:50;;;;;;;0.20;0.20;;;13.20;51.10;;;;;;5126071;27;46878;-18
2021/12/28 08:01:17;;;;;;;0.30;0.30;;;13.20;51.00;;;;;;5126199;27;48780;-16
2021/12/28 08:03:45;;;;;;;0.43;0.30;;;13.20;51.20;;;;;;5125859;27;47088;-17
2021/12/28 08:06:12;;;;;;;0.20;0.20;;;13.20;51.00;;;;;;5126278;27;47038;-16
2021/12/28 08:08:38;;;;;;;0.28;0.20;;;13.20;51.10;;;;;;5126383;27;46949;-16
2021/12/28 08:11:05;;;;;;;0.20;0.20;;;13.20;51.10;;;;;;5125944;27;47880;-16
2021/12/28 08:13:32;;;;;;;0.20;0.20;;;13.20;51.00;;;;;;5126029;27;46784;-16
2021/12/28 08:15:59;;;;;;;0.28;0.28;;;13.20;50.90;;;;;;5126234;27;46845;-16
2021/12/28 08:18:25;;;;;;;0.20;0.20;;;13.20;51.00;;;;;;5125457;27;47169;-16
2021/12/28 08:20:53;;;;;;;0.20;0.20;;;13.20;50.90;;;;;;5125525;27;47669;-16
2021/12/28 08:23:20;;;;;;;0.30;0.30;;;13.20;51.00;;;;;;5125996;27;46839;-16
2021/12/28 08:25:47;;;;;;;0.38;0.38;;;13.20;51.00;;;;;;5125951;27;46883;-16
2021/12/28 08:28:14;;;;;;;0.37;0.37;;;13.20;51.00;;;;;;5126040;27;47294;-15
2021/12/28 08:30:40;;;;;;;0.30;0.30;;;13.20;50.90;;;;;;5125908;27;48240;-16
2021/12/28 08:33:08;;;;;;;0.38;0.30;;;13.30;50.90;;;;;;5125681;27;47143;-16
2021/12/28 08:35:35;;;;;;;0.15;0.10;;;13.20;50.80;;;;;;5125430;27;46797;-16
2021/12/28 08:38:03;;;;;;;0.30;0.20;;;13.20;50.90;;;;;;5126060;27;46913;-16
2021/12/28 08:40:29;;;;;;;0.55;0.28;;;13.30;50.90;;;;;;5125072;27;48126;-16
2021/12/28 08:42:56;;;;;;;0.25;0.25;;;13.30;50.90;;;;;;5128245;27;47225;-17
2021/12/28 08:45:23;;;;;;;0.33;0.33;;;13.30;51.00;;;;;;5128795;27;47001;-15
2021/12/28 08:47:50;;;;;;;0.30;0.30;;;13.30;50.90;;;;;;5128941;27;46971;-16
2021/12/28 08:50:17;;;;;;;0.30;0.30;;;13.30;50.90;;;;;;5127296;27;49037;-15
2021/12/28 08:52:43;;;;;;;0.30;0.30;;;13.30;50.90;;;;;;5128165;27;46877;-16
2021/12/28 08:55:12;;;;;;;0.30;0.20;;;13.30;50.90;;;;;;5128411;27;47086;-16
2021/12/28 08:57:38;;;;;;;0.10;0.10;;;13.30;50.90;;;;;;5128301;27;46986;-16
2021/12/28 09:00:07;;;;;;;0.30;0.27;;;13.30;50.80;;;;;;5128054;27;46929;-16
2021/12/28 09:02:34;;;;;;;0.22;0.20;;;13.30;51.00;;;;;;5128238;27;46932;-16
2021/12/28 09:05:01;;;;;;;0.10;0.10;;;13.30;50.90;;;;;;5129142;27;46965;-17
2021/12/28 09:07:27;;;;;;;0.20;0.20;;;13.30;51.00;;;;;;5129278;27;46866;-17
2021/12/28 09:09:55;;;;;;;0.10;0.10;;;13.30;51.00;;;;;;5128428;27;46914;-16
2021/12/28 09:12:23;;;;;;;0.30;0.30;;;13.30;50.90;;;;;;5128779;27;46800;-16
2021/12/28 09:14:49;;;;;;;0.10;0.10;;;13.40;51.00;;;;;;5128550;27;46870;-16
2021/12/28 09:17:16;;;;;;;0.20;0.20;;;13.40;51.00;;;;;;5128721;27;46861;-16
2021/12/28 09:19:43;;;;;;;0.85;0.20;;;13.40;51.00;;;;;;5127979;27;48144;-16
2021/12/28 09:22:10;;;;;;;0.17;0.17;;;13.40;51.00;;;;;;5128394;27;46754;-16
2021/12/28 09:24:37;;;;;;;0.20;0.20;;;13.40;51.10;;;;;;5128575;27;46906;-15
2021/12/28 09:27:04;;;;;;;0.10;0.10;;;13.40;51.00;;;;;;5129000;27;47358;-16
2021/12/28 09:29:32;;;;;;;0.10;0.10;;;13.40;51.20;;;;;;5128476;27;49070;-16
2021/12/28 09:31:59;;;;;;;0.15;0.15;;;13.40;51.10;;;;;;5128639;27;46909;-16
2021/12/28 09:34:26;;;;;;;0.20;0.20;;;13.40;51.10;;;;;;5128505;27;47004;-16
2021/12/28 09:36:53;;;;;;;0.10;0.10;;;13.40;51.10;;;;;;5128816;27;46976;-16
2021/12/28 09:39:22;;;;;;;0.20;0.20;;;13.40;51.10;;;;;;5128224;27;48227;-15
2021/12/28 09:41:51;;;;;;;0.30;0.20;;;13.40;51.10;;;;;;5128617;27;46922;-16
2021/12/28 09:44:17;;;;;;;0.30;0.30;;;13.40;51.10;;;;;;5128195;27;46952;-17
2021/12/28 09:46:45;;;;;;;0.10;0.10;;;13.40;51.20;;;;;;5128447;27;46848;-16
2021/12/28 09:49:12;;;;;;;0.20;0.20;;;13.40;51.20;;;;;;5127780;27;49087;-16
2021/12/28 09:51:39;;;;;;;0.20;0.20;;;13.40;51.10;;;;;;5128464;27;46831;-17
2021/12/28 09:54:06;;;;;;;0.68;0.40;;;13.40;51.30;;;;;;5126871;27;46762;-16
2021/12/28 09:56:33;;;;;;;0.10;0.10;;;13.40;51.10;;;;;;5127790;27;47063;-17
2021/12/28 09:59:00;;;;;;;0.20;0.20;;;13.50;51.10;;;;;;5127555;27;49116;-16
2021/12/28 10:01:27;;;;;;;0.17;0.17;;;13.50;51.20;;;;;;5127839;27;47398;-16
2021/12/28 10:03:57;;;;;;;0.20;0.20;;;13.50;51.80;;;;;;5127967;27;46864;-16
2021/12/28 10:06:25;;;;;;;0.20;0.20;;;13.50;51.50;;;;;;5127959;27;47065;-16
2021/12/28 10:09:06;;;;;;;0.30;0.30;;;13.50;51.60;;;;;;5127397;27;48846;-17
2021/12/28 10:11:34;;;;;;;0.17;0.17;;;13.50;51.80;;;;;;5127300;27;46813;-16
2021/12/28 10:14:14;;;;;;;0.15;0.15;;;13.60;52.10;;;;;;5128013;27;46962;-16
2021/12/28 10:16:50;;;;;;;0.20;0.20;;;13.70;51.80;;;;;;5127897;27;47127;-16
2021/12/28 10:19:32;;;;;;;0.98;0.30;;;13.80;51.30;;;;;;5127572;27;47847;-16
2021/12/28 10:22:00;;;;;;;0.30;0.30;;;14.00;51.00;;;;;;5127572;27;46810;-17
2021/12/28 10:24:34;;;;;;;0.30;0.30;;;14.10;50.80;;;;;;5126797;27;46984;-16
2021/12/28 10:27:10;;;;;;;0.30;0.30;;;14.30;50.40;;;;;;5127222;27;47279;-16
2021/12/28 10:29:37;;;;;;;0.20;0.20;;;14.60;50.10;;;;;;5125470;27;48213;-16
2021/12/28 10:32:19;;;;;;;0.20;0.20;;;14.80;49.90;;;;;;5125183;27;47119;-16
2021/12/28 10:34:48;;;;;;;0.43;0.30;;;14.90;49.40;;;;;;5123871;27;46955;-16
2021/12/28 10:37:18;;;;;;;0.30;0.30;;;15.10;49.20;;;;;;5125475;27;47108;-16
2021/12/28 10:39:45;;;;;;;0.25;0.25;;;15.30;49.00;;;;;;5125304;27;47148;-16
2021/12/28 10:42:28;;;;;;;0.28;0.28;;;15.50;48.80;;;;;;5125803;27;47085;-17
2021/12/28 10:44:58;;;;;;;0.30;0.30;;;15.60;48.50;;;;;;5125641;27;47055;-16
2021/12/28 10:47:25;;;;;;;0.10;0.10;;;15.80;48.30;;;;;;5127052;27;47189;-17
2021/12/28 10:49:53;;;;;;;0.40;0.30;;;15.90;48.20;;;;;;5127093;27;46950;-18
2021/12/28 10:52:24;;;;;;;0.38;0.30;;;16.00;48.10;;;;;;5126825;27;46862;-15
2021/12/28 10:54:51;;;;;;;0.22;0.22;;;16.20;47.90;;;;;;5127059;27;46830;-17
2021/12/28 10:57:18;;;;;;;0.40;0.40;;;16.30;47.80;;;;;;5127157;27;47018;-16
2021/12/28 10:59:44;;;;;;;0.30;0.30;;;16.30;47.60;;;;;;5126652;27;47958;-16
2021/12/28 11:02:22;;;;;;;0.40;0.40;;;16.40;47.60;;;;;;5126471;27;46871;-16
2021/12/28 11:04:48;;;;;;;0.30;0.30;;;16.50;47.50;;;;;;5115291;27;46956;-16
2021/12/28 11:07:20;;;;;;;0.60;0.60;;;16.60;47.40;;;;;;5123674;27;47134;-17
2021/12/28 11:09:47;;;;;;;0.30;0.30;;;16.70;47.20;;;;;;5106123;27;48861;-16
2021/12/28 11:12:14;;;;;;;0.50;0.50;;;16.80;47.80;;;;;;5119038;27;46944;-16
2021/12/28 11:14:40;;;;;;;0.50;0.50;;;16.80;47.00;;;;;;5106560;27;46908;-16
2021/12/28 11:17:07;;;;;;;0.85;0.30;;;16.80;47.00;;;;;;5120975;27;47275;-16
2021/12/28 11:19:35;;;;;;;0.43;0.30;;;16.90;47.10;;;;;;5126424;27;46916;-16
2021/12/28 11:22:03;;;;;;;0.40;0.40;;;17.00;46.90;;;;;;5125400;27;46903;-16
2021/12/28 11:24:33;;;;;;;1.02;0.35;;;17.00;46.80;;;;;;5106785;27;46889;-17
2021/12/28 11:27:00;;;;;;;0.40;0.40;;;17.10;46.60;;;;;;5109858;27;47048;-17
2021/12/28 11:29:30;;;;;;;0.30;0.30;;;17.20;46.70;;;;;;5105387;27;47961;-15
2021/12/28 11:31:59;;;;;;;1.65;0.45;;;17.20;46.60;;;;;;5112720;27;47159;-16
2021/12/28 11:34:27;;;;;;;0.40;0.40;;;17.20;46.40;;;;;;5105792;27;46899;-16
2021/12/28 11:36:54;;;;;;;0.40;0.40;;;17.30;46.50;;;;;;5113381;27;47052;-17
2021/12/28 11:39:23;;;;;;;0.47;0.47;;;17.40;46.40;;;;;;5119816;27;46968;-16
2021/12/28 11:41:51;;;;;;;0.40;0.40;;;17.40;46.10;;;;;;5125456;27;46883;-16
2021/12/28 11:44:18;;;;;;;0.30;0.30;;;17.50;46.30;;;;;;5105155;27;46941;-17
2021/12/28 11:46:45;;;;;;;0.40;0.40;;;17.50;46.30;;;;;;5114236;27;47030;-17
2021/12/28 11:49:14;;;;;;;0.40;0.40;;;17.50;46.20;;;;;;5105883;27;47985;-16
2021/12/28 11:51:41;;;;;;;0.85;0.40;;;17.50;46.20;;;;;;5109207;27;46899;-17
2021/12/28 11:54:08;;;;;;;0.50;0.50;;;17.60;46.20;;;;;;5105628;27;47070;-16
2021/12/28 11:56:37;;;;;;;0.82;0.70;;;17.60;46.20;;;;;;5111664;27;46980;-16
2021/12/28 11:59:09;;;;;;;0.75;0.40;;;17.70;46.10;;;;;;5105429;27;47842;-17
2021/12/28 12:01:55;;;;;;;0.45;0.45;;;17.70;46.00;;;;;;5109041;27;47384;-16
2021/12/28 12:04:56;;;;;;;0.55;0.55;;;17.80;46.00;;;;;;5105516;27;47164;-16
2021/12/28 12:07:28;;;;;;;0.40;0.40;;;17.80;46.00;;;;;;5122739;27;47015;-17
2021/12/28 12:10:27;;;;;;;0.40;0.40;;;17.90;45.90;;;;;;5126099;27;48766;-16
2021/12/28 12:12:59;;;;;;;1.90;0.50;;;17.90;46.00;;;;;;5110083;27;46824;-16
2021/12/28 12:15:27;;;;;;;0.30;0.30;;;18.00;45.90;;;;;;5114907;27;47135;-17
2021/12/28 12:17:58;;;;;;;0.40;0.40;;;18.00;45.80;;;;;;5125250;27;47063;-16
2021/12/28 12:20:30;;;;;;;0.50;0.50;;;18.00;45.80;;;;;;5111617;27;47777;-16
2021/12/28 12:23:08;;;;;;;0.65;0.40;;;18.00;45.80;;;;;;5126599;27;46990;-16
2021/12/28 12:25:47;;;;;;;0.30;0.30;;;18.00;45.80;;;;;;5109636;27;46847;-16
2021/12/28 12:28:14;;;;;;;0.93;0.45;;;18.10;45.80;;;;;;5120752;27;46911;-16
2021/12/28 12:30:46;;;;;;;0.40;0.40;;;18.20;45.80;;;;;;5112109;27;46878;-16
2021/12/28 12:33:13;;;;;;;0.50;0.50;;;18.20;45.60;;;;;;5129250;27;46874;-16
2021/12/28 12:35:41;;;;;;;0.32;0.32;;;18.20;45.60;;;;;;5127427;27;46860;-16
2021/12/28 12:38:33;;;;;;;0.38;0.38;;;18.20;45.60;;;;;;5129564;27;47172;-16
2021/12/28 12:41:00;;;;;;;0.52;0.52;;;18.30;45.60;;;;;;5123017;27;48864;-16
2021/12/28 12:43:31;;;;;;;0.32;0.32;;;18.30;45.60;;;;;;5129224;27;46850;-17
2021/12/28 12:46:07;;;;;;;1.33;0.60;;;18.40;45.50;;;;;;5123744;27;46816;-16
2021/12/28 12:48:55;;;;;;;0.63;0.47;;;18.40;45.50;;;;;;5129225;27;47252;-16
2021/12/28 12:51:29;;;;;;;0.50;0.50;;;18.40;45.40;;;;;;5119995;27;48796;-16
2021/12/28 12:53:58;;;;;;;0.30;0.30;;;18.40;45.50;;;;;;5126458;27;46896;-17
2021/12/28 12:56:26;;;;;;;0.40;0.40;;;18.40;45.50;;;;;;5125839;27;46810;-17